sensor_id;sensor_type;location;lat;lon;timestamp;P1;durP1;ratioP1;P2;durP2;ratioP2
25045;SDS011;13044;49.304;12.840;2023-11-21T00:02:25;2.53;;;1.40;;
25045;SDS011;13044;49.304;12.840;2023-11-21T00:04:53;3.20;;;1.55;;
25045;SDS011;13044;49.304;12.840;2023-11-21T00:07:20;3.92;;;1.42;;
25045;SDS011;13044;49.304;12.840;2023-11-21T00:09:47;2.45;;;1.30;;
25045;SDS011;13044;49.304;12.840;2023-11-21T00:12:14;2.20;;;1.35;;
25045;SDS011;13044;49.304;12.840;2023-11-21T00:14:41;2.55;;;1.38;;
25045;SDS011;13044;49.304;12.840;2023-11-21T00:17:08;2.35;;;1.10;;
25045;SDS011;13044;49.304;12.840;2023-11-21T00:19:35;1.98;;;1.33;;
25045;SDS011;13044;49.304;12.840;2023-11-21T00:22:02;6.13;;;1.50;;
25045;SDS011;13044;49.304;12.840;2023-11-21T00:24:29;3.08;;;1.20;;
25045;SDS011;13044;49.304;12.840;2023-11-21T00:26:56;1.77;;;1.30;;
25045;SDS011;13044;49.304;12.840;2023-11-21T00:29:23;4.53;;;1.48;;
25045;SDS011;13044;49.304;12.840;2023-11-21T00:31:50;2.58;;;1.10;;
25045;SDS011;13044;49.304;12.840;2023-11-21T00:34:17;1.85;;;1.23;;
25045;SDS011;13044;49.304;12.840;2023-11-21T00:36:44;3.05;;;1.00;;
25045;SDS011;13044;49.304;12.840;2023-11-21T00:39:10;1.75;;;1.10;;
25045;SDS011;13044;49.304;12.840;2023-11-21T00:41:38;3.80;;;1.40;;
25045;SDS011;13044;49.304;12.840;2023-11-21T00:44:05;2.03;;;1.20;;
25045;SDS011;13044;49.304;12.840;2023-11-21T00:46:32;2.03;;;1.02;;
25045;SDS011;13044;49.304;12.840;2023-11-21T00:49:00;3.88;;;1.20;;
25045;SDS011;13044;49.304;12.840;2023-11-21T00:51:27;3.22;;;1.45;;
25045;SDS011;13044;49.304;12.840;2023-11-21T00:53:53;2.67;;;1.13;;
25045;SDS011;13044;49.304;12.840;2023-11-21T00:56:20;2.08;;;1.20;;
25045;SDS011;13044;49.304;12.840;2023-11-21T00:58:48;1.08;;;0.98;;
25045;SDS011;13044;49.304;12.840;2023-11-21T01:01:18;1.33;;;1.00;;
25045;SDS011;13044;49.304;12.840;2023-11-21T01:03:46;2.30;;;1.33;;
25045;SDS011;13044;49.304;12.840;2023-11-21T01:06:13;1.88;;;1.38;;
25045;SDS011;13044;49.304;12.840;2023-11-21T01:08:41;2.20;;;1.20;;
25045;SDS011;13044;49.304;12.840;2023-11-21T01:11:10;2.72;;;1.20;;
25045;SDS011;13044;49.304;12.840;2023-11-21T01:13:41;4.20;;;1.20;;
25045;SDS011;13044;49.304;12.840;2023-11-21T01:16:08;2.22;;;1.40;;
25045;SDS011;13044;49.304;12.840;2023-11-21T01:18:35;3.58;;;1.60;;
25045;SDS011;13044;49.304;12.840;2023-11-21T01:21:02;4.90;;;1.70;;
25045;SDS011;13044;49.304;12.840;2023-11-21T01:23:30;3.10;;;1.50;;
25045;SDS011;13044;49.304;12.840;2023-11-21T01:25:57;3.95;;;1.25;;
25045;SDS011;13044;49.304;12.840;2023-11-21T01:28:24;2.17;;;1.27;;
25045;SDS011;13044;49.304;12.840;2023-11-21T01:30:51;2.88;;;1.08;;
25045;SDS011;13044;49.304;12.840;2023-11-21T01:33:18;2.25;;;1.13;;
25045;SDS011;13044;49.304;12.840;2023-11-21T01:35:45;2.70;;;1.08;;
25045;SDS011;13044;49.304;12.840;2023-11-21T01:38:12;2.15;;;1.00;;
25045;SDS011;13044;49.304;12.840;2023-11-21T01:40:41;1.75;;;1.08;;
25045;SDS011;13044;49.304;12.840;2023-11-21T01:43:08;2.65;;;0.80;;
25045;SDS011;13044;49.304;12.840;2023-11-21T01:45:35;1.17;;;0.90;;
25045;SDS011;13044;49.304;12.840;2023-11-21T01:48:02;2.30;;;1.17;;
25045;SDS011;13044;49.304;12.840;2023-11-21T01:50:30;2.95;;;1.40;;
25045;SDS011;13044;49.304;12.840;2023-11-21T01:52:57;0.93;;;0.73;;
25045;SDS011;13044;49.304;12.840;2023-11-21T01:55:24;1.77;;;1.13;;
25045;SDS011;13044;49.304;12.840;2023-11-21T01:57:54;2.30;;;1.10;;
25045;SDS011;13044;49.304;12.840;2023-11-21T02:00:23;3.03;;;1.23;;
25045;SDS011;13044;49.304;12.840;2023-11-21T02:02:51;4.07;;;1.20;;
25045;SDS011;13044;49.304;12.840;2023-11-21T02:05:18;1.48;;;0.95;;
25045;SDS011;13044;49.304;12.840;2023-11-21T02:07:47;2.83;;;1.00;;
25045;SDS011;13044;49.304;12.840;2023-11-21T02:10:15;2.95;;;1.10;;
25045;SDS011;13044;49.304;12.840;2023-11-21T02:12:43;4.07;;;1.55;;
25045;SDS011;13044;49.304;12.840;2023-11-21T02:15:12;4.30;;;1.70;;
25045;SDS011;13044;49.304;12.840;2023-11-21T02:17:47;2.35;;;1.10;;
25045;SDS011;13044;49.304;12.840;2023-11-21T02:20:18;2.50;;;1.10;;
25045;SDS011;13044;49.304;12.840;2023-11-21T02:22:53;4.00;;;1.33;;
25045;SDS011;13044;49.304;12.840;2023-11-21T02:25:25;2.70;;;1.10;;
25045;SDS011;13044;49.304;12.840;2023-11-21T02:27:54;2.28;;;0.88;;
25045;SDS011;13044;49.304;12.840;2023-11-21T02:30:22;3.83;;;1.30;;
25045;SDS011;13044;49.304;12.840;2023-11-21T02:32:51;2.40;;;1.10;;
25045;SDS011;13044;49.304;12.840;2023-11-21T02:35:23;2.23;;;1.20;;
25045;SDS011;13044;49.304;12.840;2023-11-21T02:37:52;3.78;;;1.00;;
25045;SDS011;13044;49.304;12.840;2023-11-21T02:40:20;2.05;;;1.30;;
25045;SDS011;13044;49.304;12.840;2023-11-21T02:42:47;2.05;;;1.50;;
25045;SDS011;13044;49.304;12.840;2023-11-21T02:45:14;2.00;;;1.27;;
25045;SDS011;13044;49.304;12.840;2023-11-21T02:47:44;3.88;;;1.60;;
25045;SDS011;13044;49.304;12.840;2023-11-21T02:50:12;2.80;;;1.35;;
25045;SDS011;13044;49.304;12.840;2023-11-21T02:52:39;3.42;;;1.40;;
25045;SDS011;13044;49.304;12.840;2023-11-21T02:55:07;1.88;;;1.30;;
25045;SDS011;13044;49.304;12.840;2023-11-21T02:57:34;8.95;;;1.65;;
25045;SDS011;13044;49.304;12.840;2023-11-21T03:00:01;2.60;;;1.42;;
25045;SDS011;13044;49.304;12.840;2023-11-21T03:02:28;3.47;;;1.55;;
25045;SDS011;13044;49.304;12.840;2023-11-21T03:04:56;3.10;;;1.60;;
25045;SDS011;13044;49.304;12.840;2023-11-21T03:07:22;2.22;;;1.30;;
25045;SDS011;13044;49.304;12.840;2023-11-21T03:09:49;2.05;;;1.40;;
25045;SDS011;13044;49.304;12.840;2023-11-21T03:12:16;5.38;;;2.03;;
25045;SDS011;13044;49.304;12.840;2023-11-21T03:14:43;2.92;;;1.95;;
25045;SDS011;13044;49.304;12.840;2023-11-21T03:17:10;2.70;;;1.65;;
25045;SDS011;13044;49.304;12.840;2023-11-21T03:19:37;5.05;;;1.60;;
25045;SDS011;13044;49.304;12.840;2023-11-21T03:22:04;2.38;;;1.70;;
25045;SDS011;13044;49.304;12.840;2023-11-21T03:24:31;4.38;;;2.00;;
25045;SDS011;13044;49.304;12.840;2023-11-21T03:26:58;4.05;;;1.70;;
25045;SDS011;13044;49.304;12.840;2023-11-21T03:29:25;4.72;;;1.70;;
25045;SDS011;13044;49.304;12.840;2023-11-21T03:31:52;6.05;;;2.08;;
25045;SDS011;13044;49.304;12.840;2023-11-21T03:34:26;2.22;;;1.60;;
25045;SDS011;13044;49.304;12.840;2023-11-21T03:36:54;2.50;;;1.55;;
25045;SDS011;13044;49.304;12.840;2023-11-21T03:39:21;4.88;;;1.80;;
25045;SDS011;13044;49.304;12.840;2023-11-21T03:41:48;3.13;;;1.75;;
25045;SDS011;13044;49.304;12.840;2023-11-21T03:44:15;2.55;;;1.60;;
25045;SDS011;13044;49.304;12.840;2023-11-21T03:46:44;2.00;;;1.77;;
25045;SDS011;13044;49.304;12.840;2023-11-21T03:49:11;3.17;;;1.92;;
25045;SDS011;13044;49.304;12.840;2023-11-21T03:51:37;2.80;;;2.55;;
25045;SDS011;13044;49.304;12.840;2023-11-21T03:54:04;74.05;;;43.83;;
25045;SDS011;13044;49.304;12.840;2023-11-21T03:56:31;95.88;;;52.83;;
25045;SDS011;13044;49.304;12.840;2023-11-21T03:58:58;34.00;;;22.92;;
25045;SDS011;13044;49.304;12.840;2023-11-21T04:01:25;20.05;;;13.63;;
25045;SDS011;13044;49.304;12.840;2023-11-21T04:03:52;25.50;;;18.55;;
25045;SDS011;13044;49.304;12.840;2023-11-21T04:06:19;10.38;;;8.57;;
25045;SDS011;13044;49.304;12.840;2023-11-21T04:08:45;17.05;;;14.85;;
25045;SDS011;13044;49.304;12.840;2023-11-21T04:11:13;7.90;;;6.88;;
25045;SDS011;13044;49.304;12.840;2023-11-21T04:13:40;16.20;;;9.93;;
25045;SDS011;13044;49.304;12.840;2023-11-21T04:16:08;13.38;;;9.80;;
25045;SDS011;13044;49.304;12.840;2023-11-21T04:18:36;13.20;;;8.65;;
25045;SDS011;13044;49.304;12.840;2023-11-21T04:21:06;6.68;;;6.07;;
25045;SDS011;13044;49.304;12.840;2023-11-21T04:23:34;7.90;;;7.03;;
25045;SDS011;13044;49.304;12.840;2023-11-21T04:26:02;5.55;;;4.05;;
25045;SDS011;13044;49.304;12.840;2023-11-21T04:28:29;5.13;;;4.20;;
25045;SDS011;13044;49.304;12.840;2023-11-21T04:30:56;3.10;;;2.40;;
25045;SDS011;13044;49.304;12.840;2023-11-21T04:33:23;4.55;;;2.58;;
25045;SDS011;13044;49.304;12.840;2023-11-21T04:35:50;4.03;;;2.10;;
25045;SDS011;13044;49.304;12.840;2023-11-21T04:38:19;2.05;;;1.80;;
25045;SDS011;13044;49.304;12.840;2023-11-21T04:40:46;2.90;;;1.95;;
25045;SDS011;13044;49.304;12.840;2023-11-21T04:43:13;1.98;;;1.55;;
25045;SDS011;13044;49.304;12.840;2023-11-21T04:45:40;2.05;;;1.52;;
25045;SDS011;13044;49.304;12.840;2023-11-21T04:48:07;3.30;;;2.15;;
25045;SDS011;13044;49.304;12.840;2023-11-21T04:50:34;4.45;;;2.10;;
25045;SDS011;13044;49.304;12.840;2023-11-21T04:53:01;2.55;;;2.08;;
25045;SDS011;13044;49.304;12.840;2023-11-21T04:55:28;4.20;;;2.03;;
25045;SDS011;13044;49.304;12.840;2023-11-21T04:57:55;5.80;;;2.25;;
25045;SDS011;13044;49.304;12.840;2023-11-21T05:00:22;2.60;;;1.95;;
25045;SDS011;13044;49.304;12.840;2023-11-21T05:02:50;2.60;;;2.05;;
25045;SDS011;13044;49.304;12.840;2023-11-21T05:05:17;4.00;;;2.05;;
25045;SDS011;13044;49.304;12.840;2023-11-21T05:07:44;3.92;;;2.20;;
25045;SDS011;13044;49.304;12.840;2023-11-21T05:10:10;4.30;;;2.15;;
25045;SDS011;13044;49.304;12.840;2023-11-21T05:12:39;5.40;;;1.92;;
25045;SDS011;13044;49.304;12.840;2023-11-21T05:15:07;3.67;;;2.28;;
25045;SDS011;13044;49.304;12.840;2023-11-21T05:17:38;2.90;;;1.80;;
25045;SDS011;13044;49.304;12.840;2023-11-21T05:20:10;3.70;;;2.08;;
25045;SDS011;13044;49.304;12.840;2023-11-21T05:22:38;2.85;;;1.73;;
25045;SDS011;13044;49.304;12.840;2023-11-21T05:25:06;7.35;;;2.38;;
25045;SDS011;13044;49.304;12.840;2023-11-21T05:27:34;6.28;;;2.00;;
25045;SDS011;13044;49.304;12.840;2023-11-21T05:30:02;3.33;;;2.08;;
25045;SDS011;13044;49.304;12.840;2023-11-21T05:32:38;4.13;;;2.10;;
25045;SDS011;13044;49.304;12.840;2023-11-21T05:35:05;4.28;;;2.08;;
25045;SDS011;13044;49.304;12.840;2023-11-21T05:37:36;3.00;;;2.22;;
25045;SDS011;13044;49.304;12.840;2023-11-21T05:40:05;8.95;;;7.40;;
25045;SDS011;13044;49.304;12.840;2023-11-21T05:42:34;9.55;;;6.63;;
25045;SDS011;13044;49.304;12.840;2023-11-21T05:45:02;5.60;;;4.60;;
25045;SDS011;13044;49.304;12.840;2023-11-21T05:47:38;4.03;;;3.20;;
25045;SDS011;13044;49.304;12.840;2023-11-21T05:50:12;9.07;;;3.75;;
25045;SDS011;13044;49.304;12.840;2023-11-21T05:52:42;3.75;;;2.67;;
25045;SDS011;13044;49.304;12.840;2023-11-21T05:55:11;6.18;;;3.28;;
25045;SDS011;13044;49.304;12.840;2023-11-21T05:57:38;4.15;;;2.58;;
25045;SDS011;13044;49.304;12.840;2023-11-21T06:00:10;2.90;;;2.30;;
25045;SDS011;13044;49.304;12.840;2023-11-21T06:02:46;4.13;;;2.50;;
25045;SDS011;13044;49.304;12.840;2023-11-21T06:05:17;3.03;;;2.45;;
25045;SDS011;13044;49.304;12.840;2023-11-21T06:07:46;3.53;;;2.28;;
25045;SDS011;13044;49.304;12.840;2023-11-21T06:10:13;5.40;;;2.50;;
25045;SDS011;13044;49.304;12.840;2023-11-21T06:12:41;4.97;;;2.58;;
25045;SDS011;13044;49.304;12.840;2023-11-21T06:15:09;3.53;;;2.50;;
25045;SDS011;13044;49.304;12.840;2023-11-21T06:17:41;4.35;;;2.50;;
25045;SDS011;13044;49.304;12.840;2023-11-21T06:20:09;3.90;;;2.28;;
25045;SDS011;13044;49.304;12.840;2023-11-21T06:22:40;3.72;;;2.40;;
25045;SDS011;13044;49.304;12.840;2023-11-21T06:25:10;3.85;;;2.85;;
25045;SDS011;13044;49.304;12.840;2023-11-21T06:27:42;3.85;;;2.78;;
25045;SDS011;13044;49.304;12.840;2023-11-21T06:30:11;3.50;;;2.38;;
25045;SDS011;13044;49.304;12.840;2023-11-21T06:32:40;4.97;;;2.80;;
25045;SDS011;13044;49.304;12.840;2023-11-21T06:35:12;3.95;;;2.90;;
25045;SDS011;13044;49.304;12.840;2023-11-21T06:37:39;3.42;;;2.78;;
25045;SDS011;13044;49.304;12.840;2023-11-21T06:40:06;4.18;;;3.30;;
25045;SDS011;13044;49.304;12.840;2023-11-21T06:42:36;5.70;;;2.75;;
25045;SDS011;13044;49.304;12.840;2023-11-21T06:45:04;4.50;;;2.40;;
25045;SDS011;13044;49.304;12.840;2023-11-21T06:47:32;5.82;;;2.75;;
25045;SDS011;13044;49.304;12.840;2023-11-21T06:49:59;4.30;;;2.70;;
25045;SDS011;13044;49.304;12.840;2023-11-21T06:52:27;3.58;;;2.65;;
25045;SDS011;13044;49.304;12.840;2023-11-21T06:54:53;3.50;;;2.42;;
25045;SDS011;13044;49.304;12.840;2023-11-21T06:57:22;4.30;;;2.70;;
25045;SDS011;13044;49.304;12.840;2023-11-21T06:59:49;6.05;;;2.53;;
25045;SDS011;13044;49.304;12.840;2023-11-21T07:02:16;3.55;;;2.20;;
25045;SDS011;13044;49.304;12.840;2023-11-21T07:04:45;2.78;;;2.08;;
25045;SDS011;13044;49.304;12.840;2023-11-21T07:07:12;4.03;;;2.45;;
25045;SDS011;13044;49.304;12.840;2023-11-21T07:09:39;4.60;;;2.35;;
25045;SDS011;13044;49.304;12.840;2023-11-21T07:12:06;5.72;;;2.40;;
25045;SDS011;13044;49.304;12.840;2023-11-21T07:14:34;3.05;;;2.30;;
25045;SDS011;13044;49.304;12.840;2023-11-21T07:17:01;3.83;;;2.25;;
25045;SDS011;13044;49.304;12.840;2023-11-21T07:21:56;3.00;;;2.50;;
25045;SDS011;13044;49.304;12.840;2023-11-21T07:24:23;4.05;;;2.67;;
25045;SDS011;13044;49.304;12.840;2023-11-21T07:26:52;3.03;;;2.60;;
25045;SDS011;13044;49.304;12.840;2023-11-21T07:29:23;4.47;;;2.92;;
25045;SDS011;13044;49.304;12.840;2023-11-21T07:31:52;4.22;;;2.90;;
25045;SDS011;13044;49.304;12.840;2023-11-21T07:34:20;5.40;;;3.42;;
25045;SDS011;13044;49.304;12.840;2023-11-21T07:36:47;4.78;;;3.10;;
25045;SDS011;13044;49.304;12.840;2023-11-21T07:39:14;6.70;;;3.17;;
25045;SDS011;13044;49.304;12.840;2023-11-21T07:41:44;7.75;;;3.20;;
25045;SDS011;13044;49.304;12.840;2023-11-21T07:44:15;5.20;;;3.05;;
25045;SDS011;13044;49.304;12.840;2023-11-21T07:46:46;4.35;;;3.22;;
25045;SDS011;13044;49.304;12.840;2023-11-21T07:49:13;3.10;;;2.80;;
25045;SDS011;13044;49.304;12.840;2023-11-21T07:54:13;3.30;;;2.72;;
25045;SDS011;13044;49.304;12.840;2023-11-21T07:56:40;2.70;;;2.30;;
25045;SDS011;13044;49.304;12.840;2023-11-21T07:59:07;3.88;;;2.83;;
25045;SDS011;13044;49.304;12.840;2023-11-21T08:01:34;2.45;;;2.20;;
25045;SDS011;13044;49.304;12.840;2023-11-21T08:04:01;5.07;;;2.60;;
25045;SDS011;13044;49.304;12.840;2023-11-21T08:06:30;4.55;;;3.70;;
25045;SDS011;13044;49.304;12.840;2023-11-21T08:08:57;5.05;;;3.58;;
25045;SDS011;13044;49.304;12.840;2023-11-21T08:11:25;3.85;;;2.85;;
25045;SDS011;13044;49.304;12.840;2023-11-21T08:13:55;3.72;;;2.58;;
25045;SDS011;13044;49.304;12.840;2023-11-21T08:16:22;3.85;;;3.00;;
25045;SDS011;13044;49.304;12.840;2023-11-21T08:18:50;5.18;;;3.08;;
25045;SDS011;13044;49.304;12.840;2023-11-21T08:21:17;4.85;;;3.42;;
25045;SDS011;13044;49.304;12.840;2023-11-21T08:23:45;7.00;;;3.40;;
25045;SDS011;13044;49.304;12.840;2023-11-21T08:26:15;5.93;;;3.55;;
25045;SDS011;13044;49.304;12.840;2023-11-21T08:28:43;5.25;;;4.10;;
25045;SDS011;13044;49.304;12.840;2023-11-21T08:31:10;4.25;;;3.20;;
25045;SDS011;13044;49.304;12.840;2023-11-21T08:33:39;11.65;;;3.20;;
25045;SDS011;13044;49.304;12.840;2023-11-21T08:36:07;9.70;;;3.92;;
25045;SDS011;13044;49.304;12.840;2023-11-21T08:38:35;5.60;;;3.47;;
25045;SDS011;13044;49.304;12.840;2023-11-21T08:41:05;6.75;;;4.13;;
25045;SDS011;13044;49.304;12.840;2023-11-21T08:43:37;5.97;;;3.60;;
25045;SDS011;13044;49.304;12.840;2023-11-21T08:46:06;5.10;;;3.20;;
25045;SDS011;13044;49.304;12.840;2023-11-21T08:48:35;5.63;;;3.22;;
25045;SDS011;13044;49.304;12.840;2023-11-21T08:51:03;4.47;;;3.20;;
25045;SDS011;13044;49.304;12.840;2023-11-21T08:53:31;5.80;;;3.30;;
25045;SDS011;13044;49.304;12.840;2023-11-21T08:55:58;4.85;;;2.90;;
25045;SDS011;13044;49.304;12.840;2023-11-21T08:58:26;6.90;;;3.03;;
25045;SDS011;13044;49.304;12.840;2023-11-21T09:00:53;3.05;;;2.67;;
25045;SDS011;13044;49.304;12.840;2023-11-21T09:03:20;6.28;;;3.30;;
25045;SDS011;13044;49.304;12.840;2023-11-21T09:05:47;6.30;;;3.40;;
25045;SDS011;13044;49.304;12.840;2023-11-21T09:08:14;4.85;;;3.35;;
25045;SDS011;13044;49.304;12.840;2023-11-21T09:10:41;6.22;;;4.18;;
25045;SDS011;13044;49.304;12.840;2023-11-21T09:13:09;4.47;;;3.50;;
25045;SDS011;13044;49.304;12.840;2023-11-21T09:15:36;4.20;;;3.80;;
25045;SDS011;13044;49.304;12.840;2023-11-21T09:18:03;5.00;;;3.60;;
25045;SDS011;13044;49.304;12.840;2023-11-21T09:20:31;5.43;;;4.13;;
25045;SDS011;13044;49.304;12.840;2023-11-21T09:22:58;3.83;;;3.30;;
25045;SDS011;13044;49.304;12.840;2023-11-21T09:25:25;6.30;;;3.35;;
25045;SDS011;13044;49.304;12.840;2023-11-21T09:27:52;4.95;;;3.20;;
25045;SDS011;13044;49.304;12.840;2023-11-21T09:30:19;5.60;;;3.13;;
25045;SDS011;13044;49.304;12.840;2023-11-21T09:32:46;4.72;;;2.83;;
25045;SDS011;13044;49.304;12.840;2023-11-21T09:35:13;4.80;;;3.25;;
25045;SDS011;13044;49.304;12.840;2023-11-21T09:37:41;7.05;;;3.10;;
25045;SDS011;13044;49.304;12.840;2023-11-21T09:40:15;5.47;;;3.83;;
25045;SDS011;13044;49.304;12.840;2023-11-21T09:42:55;5.28;;;3.72;;
25045;SDS011;13044;49.304;12.840;2023-11-21T09:45:31;5.53;;;3.70;;
25045;SDS011;13044;49.304;12.840;2023-11-21T09:48:01;5.88;;;3.90;;
25045;SDS011;13044;49.304;12.840;2023-11-21T09:50:29;4.82;;;3.67;;
25045;SDS011;13044;49.304;12.840;2023-11-21T09:55:51;5.75;;;3.53;;
25045;SDS011;13044;49.304;12.840;2023-11-21T09:58:19;6.00;;;4.05;;
25045;SDS011;13044;49.304;12.840;2023-11-21T10:00:49;5.75;;;3.83;;
25045;SDS011;13044;49.304;12.840;2023-11-21T10:03:19;7.60;;;4.65;;
25045;SDS011;13044;49.304;12.840;2023-11-21T10:05:48;6.43;;;3.92;;
25045;SDS011;13044;49.304;12.840;2023-11-21T10:08:17;7.38;;;4.80;;
25045;SDS011;13044;49.304;12.840;2023-11-21T10:10:46;5.80;;;4.05;;
25045;SDS011;13044;49.304;12.840;2023-11-21T10:13:17;6.35;;;4.65;;
25045;SDS011;13044;49.304;12.840;2023-11-21T10:15:49;8.32;;;5.10;;
25045;SDS011;13044;49.304;12.840;2023-11-21T10:18:18;6.03;;;4.97;;
25045;SDS011;13044;49.304;12.840;2023-11-21T10:20:48;4.80;;;3.55;;
25045;SDS011;13044;49.304;12.840;2023-11-21T10:23:20;16.73;;;12.68;;
25045;SDS011;13044;49.304;12.840;2023-11-21T10:25:49;8.90;;;5.53;;
25045;SDS011;13044;49.304;12.840;2023-11-21T10:28:18;31.65;;;20.90;;
25045;SDS011;13044;49.304;12.840;2023-11-21T10:30:47;14.02;;;8.48;;
25045;SDS011;13044;49.304;12.840;2023-11-21T10:33:14;9.88;;;6.18;;
25045;SDS011;13044;49.304;12.840;2023-11-21T10:38:08;6.10;;;4.25;;
25045;SDS011;13044;49.304;12.840;2023-11-21T10:40:40;6.70;;;4.85;;
25045;SDS011;13044;49.304;12.840;2023-11-21T10:43:09;27.70;;;19.08;;
25045;SDS011;13044;49.304;12.840;2023-11-21T10:45:39;12.15;;;5.95;;
25045;SDS011;13044;49.304;12.840;2023-11-21T10:48:14;7.20;;;4.85;;
25045;SDS011;13044;49.304;12.840;2023-11-21T10:50:42;5.38;;;4.22;;
25045;SDS011;13044;49.304;12.840;2023-11-21T10:53:13;6.80;;;4.40;;
25045;SDS011;13044;49.304;12.840;2023-11-21T10:55:41;5.95;;;3.58;;
25045;SDS011;13044;49.304;12.840;2023-11-21T10:58:11;7.78;;;4.50;;
25045;SDS011;13044;49.304;12.840;2023-11-21T11:00:40;7.28;;;5.07;;
25045;SDS011;13044;49.304;12.840;2023-11-21T11:03:09;9.55;;;5.32;;
25045;SDS011;13044;49.304;12.840;2023-11-21T11:05:43;7.20;;;3.90;;
25045;SDS011;13044;49.304;12.840;2023-11-21T11:08:21;4.43;;;3.30;;
25045;SDS011;13044;49.304;12.840;2023-11-21T11:10:53;6.50;;;3.88;;
25045;SDS011;13044;49.304;12.840;2023-11-21T11:13:21;5.18;;;4.03;;
25045;SDS011;13044;49.304;12.840;2023-11-21T11:15:49;5.85;;;3.60;;
25045;SDS011;13044;49.304;12.840;2023-11-21T11:18:16;5.57;;;3.10;;
25045;SDS011;13044;49.304;12.840;2023-11-21T11:20:43;4.22;;;3.40;;
25045;SDS011;13044;49.304;12.840;2023-11-21T11:26:48;4.20;;;2.85;;
25045;SDS011;13044;49.304;12.840;2023-11-21T11:38:56;5.60;;;3.55;;
25045;SDS011;13044;49.304;12.840;2023-11-21T11:41:26;4.22;;;2.97;;
25045;SDS011;13044;49.304;12.840;2023-11-21T11:43:59;3.40;;;2.85;;
25045;SDS011;13044;49.304;12.840;2023-11-21T11:46:40;3.65;;;3.00;;
25045;SDS011;13044;49.304;12.840;2023-11-21T11:49:24;4.30;;;2.97;;
25045;SDS011;13044;49.304;12.840;2023-11-21T11:55:13;2.75;;;2.50;;
25045;SDS011;13044;49.304;12.840;2023-11-21T11:57:45;4.85;;;3.30;;
25045;SDS011;13044;49.304;12.840;2023-11-21T12:02:55;4.50;;;3.20;;
25045;SDS011;13044;49.304;12.840;2023-11-21T12:05:31;4.82;;;2.75;;
25045;SDS011;13044;49.304;12.840;2023-11-21T12:08:02;3.17;;;2.55;;
25045;SDS011;13044;49.304;12.840;2023-11-21T12:10:31;5.47;;;3.30;;
25045;SDS011;13044;49.304;12.840;2023-11-21T12:13:07;9.40;;;3.00;;
25045;SDS011;13044;49.304;12.840;2023-11-21T12:15:38;13.55;;;4.95;;
25045;SDS011;13044;49.304;12.840;2023-11-21T12:18:08;8.15;;;3.20;;
25045;SDS011;13044;49.304;12.840;2023-11-21T12:20:35;17.20;;;5.05;;
25045;SDS011;13044;49.304;12.840;2023-11-21T12:23:05;19.52;;;14.63;;
25045;SDS011;13044;49.304;12.840;2023-11-21T12:25:35;20.83;;;12.73;;
25045;SDS011;13044;49.304;12.840;2023-11-21T12:28:03;33.22;;;20.90;;
25045;SDS011;13044;49.304;12.840;2023-11-21T12:30:30;28.60;;;18.90;;
25045;SDS011;13044;49.304;12.840;2023-11-21T12:33:02;9.48;;;6.82;;
25045;SDS011;13044;49.304;12.840;2023-11-21T12:35:31;9.20;;;5.70;;
25045;SDS011;13044;49.304;12.840;2023-11-21T12:38:03;3.60;;;3.20;;
25045;SDS011;13044;49.304;12.840;2023-11-21T12:40:31;4.47;;;3.28;;
25045;SDS011;13044;49.304;12.840;2023-11-21T12:42:59;3.90;;;3.30;;
25045;SDS011;13044;49.304;12.840;2023-11-21T12:45:28;19.75;;;11.48;;
25045;SDS011;13044;49.304;12.840;2023-11-21T12:47:59;15.20;;;9.07;;
25045;SDS011;13044;49.304;12.840;2023-11-21T12:50:27;46.05;;;24.80;;
25045;SDS011;13044;49.304;12.840;2023-11-21T12:52:58;27.20;;;14.82;;
25045;SDS011;13044;49.304;12.840;2023-11-21T12:55:36;47.45;;;22.30;;
25045;SDS011;13044;49.304;12.840;2023-11-21T12:58:08;22.50;;;11.60;;
25045;SDS011;13044;49.304;12.840;2023-11-21T13:00:38;12.50;;;6.78;;
25045;SDS011;13044;49.304;12.840;2023-11-21T13:03:14;11.20;;;5.95;;
25045;SDS011;13044;49.304;12.840;2023-11-21T13:05:45;8.55;;;4.80;;
25045;SDS011;13044;49.304;12.840;2023-11-21T13:08:18;17.80;;;9.43;;
25045;SDS011;13044;49.304;12.840;2023-11-21T13:10:52;11.90;;;7.63;;
25045;SDS011;13044;49.304;12.840;2023-11-21T13:13:22;10.88;;;6.85;;
25045;SDS011;13044;49.304;12.840;2023-11-21T13:15:51;14.02;;;8.48;;
25045;SDS011;13044;49.304;12.840;2023-11-21T13:18:24;13.63;;;7.10;;
25045;SDS011;13044;49.304;12.840;2023-11-21T13:20:56;9.05;;;6.40;;
25045;SDS011;13044;49.304;12.840;2023-11-21T13:23:26;5.10;;;3.65;;
25045;SDS011;13044;49.304;12.840;2023-11-21T13:25:53;7.57;;;5.80;;
25045;SDS011;13044;49.304;12.840;2023-11-21T13:28:31;4.05;;;3.42;;
25045;SDS011;13044;49.304;12.840;2023-11-21T13:31:00;4.35;;;3.10;;
25045;SDS011;13044;49.304;12.840;2023-11-21T13:33:35;4.82;;;3.40;;
25045;SDS011;13044;49.304;12.840;2023-11-21T13:36:06;4.80;;;3.65;;
25045;SDS011;13044;49.304;12.840;2023-11-21T13:38:35;4.85;;;3.63;;
25045;SDS011;13044;49.304;12.840;2023-11-21T13:41:03;4.32;;;3.25;;
25045;SDS011;13044;49.304;12.840;2023-11-21T13:43:34;3.95;;;3.10;;
25045;SDS011;13044;49.304;12.840;2023-11-21T13:46:03;5.60;;;3.83;;
25045;SDS011;13044;49.304;12.840;2023-11-21T13:48:39;5.00;;;3.97;;
25045;SDS011;13044;49.304;12.840;2023-11-21T13:51:17;6.20;;;4.40;;
25045;SDS011;13044;49.304;12.840;2023-11-21T13:53:44;4.38;;;3.60;;
25045;SDS011;13044;49.304;12.840;2023-11-21T13:56:17;7.93;;;5.38;;
25045;SDS011;13044;49.304;12.840;2023-11-21T13:58:51;7.10;;;5.35;;
25045;SDS011;13044;49.304;12.840;2023-11-21T14:01:23;7.97;;;6.10;;
25045;SDS011;13044;49.304;12.840;2023-11-21T14:03:59;8.30;;;5.35;;
25045;SDS011;13044;49.304;12.840;2023-11-21T14:06:35;22.23;;;15.05;;
25045;SDS011;13044;49.304;12.840;2023-11-21T14:09:17;34.80;;;25.95;;
25045;SDS011;13044;49.304;12.840;2023-11-21T14:11:54;19.67;;;15.88;;
25045;SDS011;13044;49.304;12.840;2023-11-21T14:14:24;14.13;;;9.73;;
25045;SDS011;13044;49.304;12.840;2023-11-21T14:16:53;8.23;;;5.50;;
25045;SDS011;13044;49.304;12.840;2023-11-21T14:19:25;8.13;;;6.03;;
25045;SDS011;13044;49.304;12.840;2023-11-21T14:21:59;11.60;;;6.93;;
25045;SDS011;13044;49.304;12.840;2023-11-21T14:24:27;8.23;;;5.75;;
25045;SDS011;13044;49.304;12.840;2023-11-21T14:26:55;8.35;;;5.43;;
25045;SDS011;13044;49.304;12.840;2023-11-21T14:29:22;5.63;;;4.55;;
25045;SDS011;13044;49.304;12.840;2023-11-21T14:31:50;6.97;;;4.90;;
25045;SDS011;13044;49.304;12.840;2023-11-21T14:34:19;7.60;;;5.65;;
25045;SDS011;13044;49.304;12.840;2023-11-21T14:36:49;7.65;;;5.05;;
25045;SDS011;13044;49.304;12.840;2023-11-21T14:39:16;7.78;;;5.13;;
25045;SDS011;13044;49.304;12.840;2023-11-21T14:41:52;7.78;;;5.55;;
25045;SDS011;13044;49.304;12.840;2023-11-21T14:44:22;6.50;;;5.05;;
25045;SDS011;13044;49.304;12.840;2023-11-21T14:46:52;22.15;;;6.55;;
25045;SDS011;13044;49.304;12.840;2023-11-21T14:49:23;8.48;;;6.18;;
25045;SDS011;13044;49.304;12.840;2023-11-21T14:51:53;10.90;;;6.30;;
25045;SDS011;13044;49.304;12.840;2023-11-21T14:54:28;10.80;;;5.90;;
25045;SDS011;13044;49.304;12.840;2023-11-21T14:57:09;10.30;;;6.57;;
25045;SDS011;13044;49.304;12.840;2023-11-21T14:59:45;16.17;;;8.50;;
25045;SDS011;13044;49.304;12.840;2023-11-21T15:02:18;11.00;;;6.68;;
25045;SDS011;13044;49.304;12.840;2023-11-21T15:05:09;8.98;;;6.50;;
25045;SDS011;13044;49.304;12.840;2023-11-21T15:07:41;8.80;;;6.05;;
25045;SDS011;13044;49.304;12.840;2023-11-21T15:10:10;8.00;;;5.47;;
25045;SDS011;13044;49.304;12.840;2023-11-21T15:12:39;8.13;;;5.20;;